createdAt,value
2017-08-19T00:00:37.680Z,76.55
2017-08-19T00:03:04.063Z,76.67
2017-08-19T00:05:30.480Z,77.45
2017-08-19T00:07:57.275Z,77.32
2017-08-19T00:10:23.741Z,77.04
2017-08-19T00:12:50.389Z,76.62
2017-08-19T00:15:17.329Z,76.45
2017-08-19T00:17:43.800Z,76.88
2017-08-19T00:20:10.194Z,76.64
2017-08-19T00:22:36.581Z,76.81
2017-08-19T00:25:03.042Z,76.97
2017-08-19T00:27:30.142Z,76.60
2017-08-19T00:29:56.555Z,76.52
2017-08-19T00:32:22.982Z,76.82
2017-08-19T00:34:49.374Z,76.88
2017-08-19T00:37:15.790Z,76.72
2017-08-19T00:39:42.218Z,76.83
2017-08-19T00:42:08.687Z,76.85
2017-08-19T00:44:35.176Z,77.17
2017-08-19T00:47:01.580Z,77.08
2017-08-19T00:49:28.043Z,77.19
2017-08-19T00:51:54.437Z,76.42
2017-08-19T00:54:20.865Z,76.81
2017-08-19T00:56:47.279Z,76.62
2017-08-19T00:59:13.693Z,77.17
2017-08-19T01:01:40.134Z,76.44
2017-08-19T01:04:06.583Z,76.87
2017-08-19T01:06:33.055Z,76.60
2017-08-19T01:08:59.521Z,76.92
2017-08-19T01:11:25.939Z,76.66
2017-08-19T01:13:52.329Z,76.38
2017-08-19T01:16:18.760Z,76.18
2017-08-19T01:18:45.140Z,76.02
2017-08-19T01:21:11.581Z,76.25
2017-08-19T01:23:38.012Z,76.14
2017-08-19T01:39:37.339Z,76.66
2017-08-19T01:42:03.714Z,77.00
2017-08-19T01:44:30.091Z,76.16
2017-08-19T01:46:56.513Z,76.14
2017-08-19T01:49:22.889Z,76.38
2017-08-19T01:51:49.304Z,76.75
2017-08-19T01:54:15.697Z,77.28
2017-08-19T01:56:42.106Z,77.19
2017-08-19T01:59:08.481Z,76.87
2017-08-19T02:01:34.890Z,76.66
2017-08-19T02:04:01.275Z,77.01
2017-08-19T02:06:27.697Z,76.80
2017-08-19T02:08:54.074Z,76.82
2017-08-19T02:11:20.456Z,76.47
2017-08-19T02:13:46.871Z,76.66
2017-08-19T02:16:13.275Z,76.29
2017-08-19T02:18:39.675Z,76.53
2017-08-19T02:21:06.079Z,76.47
2017-08-19T02:23:32.471Z,76.00
2017-08-19T02:25:58.872Z,75.56
2017-08-19T02:28:25.287Z,76.20
2017-08-19T02:30:51.695Z,76.41
2017-08-19T02:33:18.099Z,76.10
2017-08-19T02:35:44.478Z,76.21
2017-08-19T02:38:10.852Z,76.21
2017-08-19T02:40:37.247Z,76.79
2017-08-19T02:43:03.672Z,76.45
2017-08-19T02:45:30.061Z,76.27
2017-08-19T02:47:56.481Z,75.73
2017-08-19T02:50:22.904Z,76.41
2017-08-19T02:52:49.293Z,77.07
2017-08-19T02:55:15.689Z,76.28
2017-08-19T02:57:42.066Z,76.53
2017-08-19T03:00:08.464Z,76.64
2017-08-19T03:02:34.881Z,76.87
2017-08-19T03:05:01.314Z,76.46
2017-08-19T03:07:27.685Z,76.74
2017-08-19T03:09:54.079Z,76.88
2017-08-19T03:12:20.444Z,76.98
2017-08-19T03:14:46.841Z,76.97
2017-08-19T03:17:13.310Z,77.41
2017-08-19T03:19:39.699Z,78.15
2017-08-19T03:22:06.076Z,77.79
2017-08-19T03:24:32.488Z,78.33
2017-08-19T03:26:58.889Z,77.66
2017-08-19T03:29:25.316Z,77.85
2017-08-19T03:31:51.682Z,78.07
2017-08-19T03:34:18.055Z,77.50
2017-08-19T03:36:44.430Z,77.54
2017-08-19T03:39:10.814Z,77.95
2017-08-19T03:41:37.189Z,77.80
2017-08-19T03:44:03.618Z,77.62
2017-08-19T03:46:30.008Z,78.11
2017-08-19T03:48:56.390Z,77.80
2017-08-19T03:51:22.759Z,77.43
2017-08-19T03:53:49.157Z,77.13
2017-08-19T03:56:15.534Z,77.84
2017-08-19T03:58:41.926Z,77.88
2017-08-19T04:01:08.347Z,77.55
2017-08-19T04:03:34.822Z,77.75
2017-08-19T04:06:01.241Z,78.11
2017-08-19T04:08:27.628Z,77.49
2017-08-19T04:10:54.009Z,77.36
2017-08-19T04:13:20.403Z,77.10
2017-08-19T04:15:46.810Z,77.78
2017-08-19T04:18:13.191Z,77.35
2017-08-19T04:20:39.569Z,78.02
2017-08-19T04:23:05.973Z,77.56
2017-08-19T04:25:32.374Z,78.26
2017-08-19T04:27:58.759Z,78.53
2017-08-19T04:30:25.172Z,78.59
2017-08-19T04:32:51.603Z,77.88
2017-08-19T04:35:17.998Z,77.79
2017-08-19T04:37:44.384Z,78.09
2017-08-19T04:40:10.831Z,77.86
2017-08-19T04:42:37.253Z,77.89
2017-08-19T04:45:04.715Z,78.31
2017-08-19T04:47:31.112Z,78.36
2017-08-19T04:49:57.483Z,78.05
2017-08-19T04:52:23.868Z,78.05
2017-08-19T04:54:50.278Z,78.10
2017-08-19T04:57:16.678Z,77.90
2017-08-19T04:59:43.099Z,77.92
2017-08-19T05:02:09.501Z,78.05
2017-08-19T05:04:35.906Z,77.83
2017-08-19T05:07:02.281Z,77.52
2017-08-19T05:09:28.703Z,77.68
2017-08-19T05:11:55.100Z,78.06
2017-08-19T05:14:21.508Z,78.00
2017-08-19T05:16:47.969Z,78.40
2017-08-19T05:19:14.368Z,79.04
2017-08-19T05:21:40.773Z,78.62
2017-08-19T05:24:07.169Z,78.69
2017-08-19T05:26:33.564Z,78.84
2017-08-19T05:29:00.035Z,78.09
2017-08-19T05:31:26.440Z,77.90
2017-08-19T05:33:52.892Z,78.44
2017-08-19T05:36:19.317Z,78.30
2017-08-19T05:38:45.705Z,77.95
2017-08-19T05:41:12.104Z,77.91
2017-08-19T05:43:38.499Z,78.17
2017-08-19T05:46:04.863Z,77.80
2017-08-19T05:48:31.260Z,78.18
2017-08-19T05:50:57.752Z,78.50
2017-08-19T05:53:24.150Z,77.78
2017-08-19T05:55:50.551Z,77.82
2017-08-19T05:58:16.990Z,78.43
2017-08-19T06:00:43.396Z,78.23
2017-08-19T06:03:09.810Z,77.79
2017-08-19T06:05:36.272Z,77.50
2017-08-19T06:08:02.712Z,77.34
2017-08-19T06:10:29.104Z,77.99
2017-08-19T06:12:55.481Z,78.12
2017-08-19T06:15:21.878Z,77.96
2017-08-19T06:17:48.280Z,77.62
2017-08-19T06:20:14.680Z,77.80
2017-08-19T06:22:41.097Z,77.85
2017-08-19T06:25:07.488Z,77.35
2017-08-19T06:27:34.523Z,77.82
2017-08-19T06:30:01.276Z,77.71
2017-08-19T06:32:33.865Z,77.51
2017-08-19T06:35:05.817Z,77.49
2017-08-19T06:37:38.755Z,77.14
2017-08-19T06:40:05.319Z,77.29
2017-08-19T06:42:34.957Z,76.95
2017-08-19T06:45:01.385Z,76.90
2017-08-19T06:47:27.898Z,77.12
2017-08-19T06:50:00.778Z,77.30
2017-08-19T06:52:27.223Z,76.53
2017-08-19T06:54:53.618Z,76.34
2017-08-19T06:57:20.172Z,76.57
2017-08-19T06:59:51.846Z,76.92
2017-08-19T07:02:18.326Z,76.45
2017-08-19T07:04:44.852Z,76.17
2017-08-19T07:07:11.374Z,76.34
2017-08-19T07:09:43.403Z,76.04
2017-08-19T07:12:10.239Z,76.19
2017-08-19T07:14:36.716Z,76.36
2017-08-19T07:17:03.179Z,76.16
2017-08-19T07:19:30.237Z,76.26
2017-08-19T07:21:57.812Z,75.68
2017-08-19T07:24:30.574Z,75.87
2017-08-19T07:26:57.822Z,75.59
2017-08-19T07:29:24.496Z,75.27
2017-08-19T07:31:50.908Z,75.57
2017-08-19T07:34:22.740Z,74.94
2017-08-19T07:36:49.103Z,75.48
2017-08-19T07:39:21.407Z,75.24
2017-08-19T07:41:48.660Z,74.98
2017-08-19T07:44:15.286Z,75.68
2017-08-19T07:46:41.762Z,75.25
2017-08-19T07:49:08.354Z,75.47
2017-08-19T07:51:34.723Z,74.80
2017-08-19T07:54:01.228Z,74.30
2017-08-19T07:56:33.902Z,74.43
2017-08-19T07:59:05.478Z,74.16
2017-08-19T08:01:37.408Z,74.07
2017-08-19T08:04:08.944Z,74.20
2017-08-19T08:06:35.450Z,73.92
2017-08-19T08:09:07.918Z,74.23
2017-08-19T08:11:41.892Z,74.12
2017-08-19T08:14:08.357Z,73.55
2017-08-19T08:16:35.198Z,73.74
2017-08-19T08:19:07.260Z,73.77
2017-08-19T08:21:34.091Z,73.72
2017-08-19T08:24:00.797Z,73.33
2017-08-19T08:26:27.509Z,73.98
2017-08-19T08:28:54.096Z,73.90
2017-08-19T08:31:26.007Z,72.51
2017-08-19T08:33:52.477Z,72.51
2017-08-19T08:36:20.525Z,72.74
2017-08-19T08:38:47.135Z,73.14
2017-08-19T08:41:13.831Z,74.10
2017-08-19T08:43:45.371Z,73.74
2017-08-19T08:46:15.029Z,73.74
2017-08-19T08:48:46.572Z,74.51
2017-08-19T08:51:13.212Z,74.25
2017-08-19T08:53:45.165Z,74.18
2017-08-19T08:56:12.642Z,74.06
2017-08-19T08:58:39.102Z,73.77
2017-08-19T09:01:05.525Z,73.90
2017-08-19T09:03:32.030Z,74.09
2017-08-19T09:06:01.273Z,74.29
2017-08-19T09:08:27.654Z,74.12
2017-08-19T09:10:59.235Z,74.08
2017-08-19T09:13:30.967Z,74.20
2017-08-19T09:15:57.338Z,73.69
2017-08-19T09:18:23.972Z,73.07
2017-08-19T09:20:55.762Z,72.67
2017-08-19T09:23:23.122Z,71.89
2017-08-19T09:25:55.126Z,69.02
2017-08-19T09:28:26.640Z,69.78
2017-08-19T09:31:00.933Z,68.44
2017-08-19T09:33:27.573Z,68.28
2017-08-19T09:35:54.185Z,69.51
2017-08-19T09:38:20.998Z,68.44
2017-08-19T09:40:47.877Z,67.45
2017-08-19T09:43:17.424Z,67.45
2017-08-19T09:45:49.365Z,67.38
2017-08-19T09:48:15.726Z,66.75
2017-08-19T09:50:50.463Z,66.94
2017-08-19T09:53:17.001Z,66.85
2017-08-19T09:55:44.835Z,67.91
2017-08-19T09:58:13.969Z,66.11
2017-08-19T10:00:43.475Z,66.21
2017-08-19T10:03:15.213Z,66.46
2017-08-19T10:05:44.764Z,65.87
2017-08-19T10:08:23.565Z,66.02
2017-08-19T10:11:13.528Z,66.54
2017-08-19T10:13:39.965Z,64.88
2017-08-19T10:16:06.513Z,64.20
2017-08-19T10:18:32.979Z,64.91
2017-08-19T10:20:59.614Z,64.00
2017-08-19T10:23:26.501Z,64.15
2017-08-19T10:25:53.217Z,64.17
2017-08-19T10:28:22.621Z,64.96
2017-08-19T10:30:49.073Z,64.09
2017-08-19T10:33:20.640Z,63.89
2017-08-19T10:35:47.188Z,63.59
2017-08-19T10:38:13.722Z,63.13
2017-08-19T10:40:40.287Z,63.43
2017-08-19T10:43:06.891Z,62.53
2017-08-19T10:45:38.560Z,62.17
2017-08-19T10:48:04.964Z,63.27
2017-08-19T10:50:32.385Z,62.15
2017-08-19T10:53:04.050Z,62.17
2017-08-19T10:55:30.486Z,62.21
2017-08-19T10:57:57.336Z,61.29
2017-08-19T11:00:23.729Z,61.26
2017-08-19T11:02:55.367Z,62.11
2017-08-19T11:05:26.871Z,61.09
2017-08-19T11:07:53.465Z,57.52
2017-08-19T11:10:19.929Z,56.68
2017-08-19T11:12:46.741Z,55.64
2017-08-19T11:15:18.330Z,56.38
2017-08-19T11:17:50.021Z,56.22
2017-08-19T11:20:17.329Z,54.80
2017-08-19T11:22:49.364Z,56.97
2017-08-19T11:25:21.156Z,57.40
2017-08-19T11:27:47.991Z,53.69
2017-08-19T11:30:14.696Z,53.32
2017-08-19T11:32:41.077Z,53.23
2017-08-19T11:35:07.474Z,54.50
2017-08-19T11:37:34.288Z,56.39
2017-08-19T11:40:00.893Z,54.14
2017-08-19T11:42:27.458Z,54.26
2017-08-19T11:45:02.049Z,53.38
2017-08-19T11:47:28.594Z,52.77
2017-08-19T11:50:02.416Z,52.56
2017-08-19T11:52:30.263Z,54.10
2017-08-19T11:54:57.071Z,54.29
2017-08-19T11:57:27.025Z,54.84
2017-08-19T11:59:58.772Z,53.71
2017-08-19T12:02:25.540Z,54.36
2017-08-19T12:04:57.170Z,55.16
2017-08-19T12:07:23.705Z,54.89
2017-08-19T12:09:50.571Z,52.74
2017-08-19T12:12:22.342Z,53.16
2017-08-19T12:14:48.857Z,54.08
2017-08-19T12:17:21.296Z,53.92
2017-08-19T12:19:54.079Z,55.82
2017-08-19T12:22:26.670Z,56.37
2017-08-19T12:24:53.947Z,56.95
2017-08-19T12:27:24.296Z,55.84
2017-08-19T12:29:56.819Z,55.64
2017-08-19T12:32:23.259Z,55.72
2017-08-19T12:34:50.159Z,55.48
2017-08-19T12:37:22.152Z,55.53
2017-08-19T12:39:54.115Z,55.64
2017-08-19T12:42:26.088Z,55.34
2017-08-19T12:44:52.853Z,56.16
2017-08-19T12:47:24.502Z,56.40
2017-08-19T12:49:54.206Z,54.49
2017-08-19T12:52:20.756Z,53.88
2017-08-19T12:54:47.318Z,56.79
2017-08-19T12:57:13.943Z,56.39
2017-08-19T12:59:43.423Z,56.81
2017-08-19T13:02:11.721Z,57.37
2017-08-19T13:04:38.351Z,55.42
2017-08-19T13:07:10.460Z,56.16
2017-08-19T13:09:36.861Z,56.01
2017-08-19T13:12:08.400Z,57.03
2017-08-19T13:14:34.913Z,56.49
2017-08-19T13:17:02.540Z,56.81
2017-08-19T13:19:36.747Z,55.44
2017-08-19T13:22:06.354Z,55.18
2017-08-19T13:24:40.154Z,56.03
2017-08-19T13:27:06.870Z,54.41
2017-08-19T13:29:33.697Z,54.61
2017-08-19T13:32:00.098Z,55.05
2017-08-19T13:34:27.736Z,55.92
2017-08-19T13:36:55.139Z,56.24
2017-08-19T13:39:26.787Z,56.43
2017-08-19T13:41:53.789Z,56.98
2017-08-19T13:44:21.533Z,58.00
2017-08-19T13:46:47.931Z,57.71
2017-08-19T13:49:15.046Z,57.57
2017-08-19T13:51:43.271Z,56.86
2017-08-19T13:54:10.088Z,57.30
2017-08-19T13:56:36.536Z,57.46
2017-08-19T13:59:02.971Z,56.98
2017-08-19T14:01:29.582Z,57.15
2017-08-19T14:04:01.709Z,56.96
2017-08-19T14:06:28.593Z,57.50
2017-08-19T14:08:55.200Z,56.75
2017-08-19T14:11:26.723Z,56.71
2017-08-19T14:13:59.168Z,56.43
2017-08-19T14:16:25.672Z,55.67
2017-08-19T14:18:57.561Z,54.92
2017-08-19T14:21:23.966Z,54.47
2017-08-19T14:23:50.402Z,53.77
2017-08-19T14:26:18.201Z,53.15
2017-08-19T14:28:50.006Z,53.31
2017-08-19T14:31:17.432Z,53.41
2017-08-19T14:33:44.393Z,53.17
2017-08-19T14:36:16.877Z,53.60
2017-08-19T14:38:54.683Z,53.51
2017-08-19T14:41:21.235Z,55.45
2017-08-19T14:43:48.582Z,56.98
2017-08-19T14:46:15.995Z,58.76
2017-08-19T14:48:42.838Z,59.12
2017-08-19T14:51:13.080Z,59.70
2017-08-19T14:53:39.667Z,60.63
2017-08-19T14:56:06.376Z,61.06
2017-08-19T14:58:33.237Z,61.45
2017-08-19T15:00:59.925Z,61.53
2017-08-19T15:03:27.676Z,61.30
2017-08-19T15:05:55.883Z,61.42
2017-08-19T15:08:22.290Z,62.01
2017-08-19T15:10:50.011Z,61.62
2017-08-19T15:13:21.892Z,62.02
2017-08-19T15:15:48.762Z,62.13
2017-08-19T15:18:15.595Z,62.60
2017-08-19T15:20:47.402Z,63.63
2017-08-19T15:23:14.341Z,63.94
2017-08-19T15:25:40.829Z,65.16
2017-08-19T15:28:07.819Z,66.43
2017-08-19T15:30:34.342Z,67.08
2017-08-19T15:33:06.457Z,67.89
2017-08-19T15:35:40.207Z,69.08
2017-08-19T15:38:11.927Z,70.29
2017-08-19T15:40:44.069Z,70.93
2017-08-19T15:43:16.528Z,70.83
2017-08-19T15:45:48.770Z,71.68
2017-08-19T15:48:20.345Z,72.60
2017-08-19T15:50:50.248Z,72.55
2017-08-19T15:53:16.709Z,72.54
2017-08-19T15:55:45.455Z,72.34
2017-08-19T15:58:13.111Z,72.69
2017-08-19T16:00:45.661Z,72.51
2017-08-19T16:03:12.043Z,73.07
2017-08-19T16:05:38.431Z,74.16
2017-08-19T16:08:10.826Z,73.26
2017-08-19T16:10:43.835Z,73.48
2017-08-19T16:13:15.762Z,74.15
2017-08-19T16:15:43.927Z,73.48
2017-08-19T16:18:10.551Z,73.37
2017-08-19T16:20:38.050Z,74.24
2017-08-19T16:23:05.605Z,75.58
2017-08-19T16:25:32.105Z,75.29
2017-08-19T16:27:59.047Z,75.62
2017-08-19T16:30:25.947Z,75.33
2017-08-19T16:32:52.632Z,75.16
2017-08-19T16:35:19.501Z,74.65
2017-08-19T16:37:46.219Z,74.67
2017-08-19T16:40:12.942Z,74.31
2017-08-19T16:42:39.357Z,74.48
2017-08-19T16:45:11.548Z,74.43
2017-08-19T16:47:37.952Z,74.69
2017-08-19T16:50:07.983Z,74.98
2017-08-19T16:52:39.655Z,75.00
2017-08-19T16:55:06.259Z,74.76
2017-08-19T16:57:38.466Z,74.61
2017-08-19T17:00:05.651Z,74.82
2017-08-19T17:02:32.216Z,74.86
2017-08-19T17:04:58.672Z,75.22
2017-08-19T17:07:25.549Z,74.78
2017-08-19T17:09:55.353Z,75.99
2017-08-19T17:12:24.505Z,76.35
2017-08-19T17:14:51.923Z,76.29
2017-08-19T17:17:18.656Z,75.36
2017-08-19T17:19:45.487Z,75.54
2017-08-19T17:22:20.717Z,75.82
2017-08-19T17:24:54.277Z,76.15
2017-08-19T17:27:27.777Z,76.62
2017-08-19T17:29:54.473Z,76.85
2017-08-19T17:32:21.278Z,76.72
2017-08-19T17:34:47.898Z,77.08
2017-08-19T17:37:19.868Z,77.22
2017-08-19T17:39:46.413Z,77.06
2017-08-19T17:42:18.081Z,76.51
2017-08-19T17:44:44.515Z,76.33
2017-08-19T17:47:17.006Z,76.46
2017-08-19T17:49:45.945Z,76.54
2017-08-19T17:52:13.279Z,76.36
2017-08-19T17:54:40.158Z,76.56
2017-08-19T17:57:07.484Z,76.40
2017-08-19T17:59:33.870Z,76.35
2017-08-19T18:02:00.767Z,76.00
2017-08-19T18:04:32.538Z,77.54
2017-08-19T18:06:59.350Z,76.58
2017-08-19T18:09:28.890Z,76.25
2017-08-19T18:12:01.005Z,76.20
2017-08-19T18:14:27.784Z,76.64
2017-08-19T18:16:54.288Z,76.70
2017-08-19T18:19:23.688Z,76.47
2017-08-19T18:21:50.468Z,76.49
2017-08-19T18:24:17.135Z,76.28
2017-08-19T18:26:51.017Z,76.38
2017-08-19T18:29:21.320Z,76.44
2017-08-19T18:31:48.248Z,76.26
2017-08-19T18:34:14.645Z,76.28
2017-08-19T18:36:42.020Z,76.61
2017-08-19T18:39:13.665Z,76.54
2017-08-19T18:41:45.030Z,76.90
2017-08-19T18:44:12.426Z,76.21
2017-08-19T18:46:39.512Z,76.05
2017-08-19T18:49:08.992Z,76.38
2017-08-19T18:51:35.453Z,76.45
2017-08-19T18:54:07.256Z,76.60
2017-08-19T18:56:34.353Z,76.70
2017-08-19T18:59:00.708Z,76.87
2017-08-19T19:01:27.436Z,76.71
2017-08-19T19:03:53.886Z,76.52
2017-08-19T19:06:24.075Z,76.15
2017-08-19T19:08:52.643Z,76.47
2017-08-19T19:11:19.303Z,76.72
2017-08-19T19:13:50.425Z,76.08
2017-08-19T19:16:18.509Z,75.75
2017-08-19T19:18:45.048Z,76.18
2017-08-19T19:21:14.549Z,76.27
2017-08-19T19:23:41.161Z,75.85
2017-08-19T19:26:08.204Z,76.23
2017-08-19T19:28:37.876Z,76.25
2017-08-19T19:31:04.657Z,76.17
2017-08-19T19:33:31.144Z,75.77
2017-08-19T19:35:57.578Z,76.11
2017-08-19T19:38:24.456Z,76.32
2017-08-19T19:40:51.135Z,76.04
2017-08-19T19:43:17.623Z,75.68
2017-08-19T19:45:49.813Z,75.90
2017-08-19T19:48:16.289Z,76.13
2017-08-19T19:50:47.701Z,75.74
2017-08-19T19:53:16.374Z,75.70
2017-08-19T19:55:43.480Z,75.69
2017-08-19T19:58:15.434Z,75.42
2017-08-19T20:00:41.837Z,75.48
2017-08-19T20:03:09.966Z,75.65
2017-08-19T20:05:36.656Z,75.65
2017-08-19T20:08:08.187Z,75.31
2017-08-19T20:10:35.608Z,74.82
2017-08-19T20:13:07.554Z,75.47
2017-08-19T20:15:34.156Z,75.02
2017-08-19T20:18:05.673Z,75.23
2017-08-19T20:20:37.470Z,75.50
2017-08-19T20:23:04.493Z,75.20
2017-08-19T20:25:33.999Z,75.28
2017-08-19T20:28:04.586Z,75.06
2017-08-19T20:30:31.148Z,75.01
2017-08-19T20:33:00.344Z,75.34
2017-08-19T20:35:26.790Z,75.27
2017-08-19T20:37:53.149Z,75.14
2017-08-19T20:40:19.922Z,74.96
2017-08-19T20:42:52.334Z,75.27
2017-08-19T20:45:19.145Z,74.84
2017-08-19T20:47:46.048Z,74.96
2017-08-19T20:50:17.945Z,75.39
2017-08-19T20:52:44.361Z,75.25
2017-08-19T20:55:14.804Z,74.69
2017-08-19T20:57:41.202Z,75.17
2017-08-19T21:00:19.726Z,75.09
2017-08-19T21:02:51.691Z,74.85
2017-08-19T21:05:18.182Z,75.27
2017-08-19T21:07:49.868Z,75.37
2017-08-19T21:10:17.157Z,75.46
2017-08-19T21:12:44.249Z,75.22
2017-08-19T21:15:10.693Z,75.10
2017-08-19T21:17:37.204Z,74.81
2017-08-19T21:20:05.231Z,74.98
2017-08-19T21:22:31.610Z,74.75
2017-08-19T21:24:58.087Z,74.63
2017-08-19T21:27:30.595Z,75.10
2017-08-19T21:29:57.446Z,75.16
2017-08-19T21:32:24.201Z,74.99
2017-08-19T21:34:51.016Z,74.45
2017-08-19T21:37:22.627Z,75.21
2017-08-19T21:39:52.155Z,74.52
2017-08-19T21:42:18.580Z,75.52
2017-08-19T21:44:45.143Z,74.92
2017-08-19T21:47:12.040Z,75.11
2017-08-19T21:49:44.950Z,75.46
2017-08-19T21:52:18.902Z,75.21
2017-08-19T21:54:45.303Z,75.26
2017-08-19T21:57:14.753Z,74.71
2017-08-19T21:59:42.530Z,74.80
2017-08-19T22:02:10.109Z,74.64
2017-08-19T22:04:37.067Z,75.68
2017-08-19T22:07:03.552Z,74.88
2017-08-19T22:09:33.331Z,74.66
2017-08-19T22:12:04.883Z,74.66
2017-08-19T22:14:35.480Z,74.52
2017-08-19T22:17:05.384Z,74.86
2017-08-19T22:19:31.768Z,75.19
2017-08-19T22:21:58.924Z,75.90
2017-08-19T22:24:30.671Z,76.16
2017-08-19T22:26:57.123Z,76.43
2017-08-19T22:29:23.556Z,75.96
2017-08-19T22:31:50.011Z,76.16
2017-08-19T22:34:16.646Z,76.13
2017-08-19T22:36:43.992Z,76.19
2017-08-19T22:39:15.667Z,76.21
2017-08-19T22:41:42.434Z,76.68
2017-08-19T22:44:10.096Z,76.31
2017-08-19T22:46:36.692Z,76.17
2017-08-19T22:49:03.784Z,77.42
2017-08-19T22:51:30.143Z,77.35
2017-08-19T22:53:56.822Z,77.39
2017-08-19T22:56:28.390Z,77.33
2017-08-19T22:58:54.851Z,77.40
2017-08-19T23:01:21.379Z,77.56
2017-08-19T23:03:49.080Z,77.75
2017-08-19T23:06:15.541Z,77.89
2017-08-19T23:08:47.121Z,77.75
2017-08-19T23:11:26.225Z,78.31
2017-08-19T23:13:58.168Z,78.09
2017-08-19T23:16:29.872Z,77.70
2017-08-19T23:18:57.762Z,78.20
2017-08-19T23:21:27.979Z,78.02
2017-08-19T23:23:57.446Z,77.73
2017-08-19T23:26:29.191Z,77.85
2017-08-19T23:29:02.700Z,77.62
2017-08-19T23:31:35.791Z,77.73
2017-08-19T23:34:07.888Z,77.69
2017-08-19T23:36:34.436Z,77.86
2017-08-19T23:39:00.967Z,77.61
2017-08-19T23:41:28.610Z,77.14
2017-08-19T23:43:55.006Z,77.47
2017-08-19T23:46:22.283Z,77.74
2017-08-19T23:48:51.942Z,77.75
2017-08-19T23:51:19.274Z,77.67
2017-08-19T23:53:51.589Z,77.38
2017-08-19T23:56:24.900Z,77.51
2017-08-19T23:58:56.838Z,77.45
